createdAt,value
2023-01-11T00:01:46.217Z,9.62
2023-01-11T00:04:15.723Z,9.66
2023-01-11T00:06:45.303Z,9.72
2023-01-11T00:09:16.038Z,9.62
2023-01-11T00:11:45.236Z,9.61
2023-01-11T00:14:16.226Z,9.62
2023-01-11T00:16:45.703Z,9.58
2023-01-11T00:19:15.395Z,9.67
2023-01-11T00:21:44.985Z,9.65
2023-01-11T00:24:14.293Z,9.66
2023-01-11T00:26:43.981Z,9.72
2023-01-11T00:29:13.269Z,9.72
2023-01-11T00:31:42.610Z,9.73
2023-01-11T00:34:11.978Z,9.75
2023-01-11T00:36:41.704Z,9.75
2023-01-11T00:39:10.933Z,9.73
2023-01-11T00:41:58.414Z,9.70
2023-01-11T00:44:45.878Z,9.72
2023-01-11T00:47:35.083Z,9.72
2023-01-11T00:50:05.643Z,9.66
2023-01-11T00:52:35.093Z,9.70
2023-01-11T00:55:04.950Z,9.66
2023-01-11T00:57:34.278Z,9.71
2023-01-11T01:00:04.244Z,9.73
2023-01-11T01:02:34.019Z,9.72
2023-01-11T01:05:03.582Z,9.76
2023-01-11T01:07:32.799Z,9.78
2023-01-11T01:10:02.274Z,9.68
2023-01-11T01:12:49.508Z,9.73
2023-01-11T01:15:19.179Z,9.73
2023-01-11T01:17:48.933Z,9.71
2023-01-11T01:20:18.527Z,9.73
2023-01-11T01:22:48.014Z,9.75
2023-01-11T01:25:17.836Z,9.75
2023-01-11T01:27:47.093Z,9.71
2023-01-11T01:30:16.640Z,9.71
2023-01-11T01:32:45.910Z,9.69
2023-01-11T01:35:15.295Z,9.70
2023-01-11T01:37:45.283Z,9.74
2023-01-11T01:40:15.205Z,9.75
2023-01-11T01:42:44.414Z,9.78
2023-01-11T01:45:28.836Z,9.74
2023-01-11T01:48:02.692Z,9.73
2023-01-11T01:50:41.342Z,9.78
2023-01-11T01:53:13.283Z,9.79
2023-01-11T01:55:45.581Z,9.84
2023-01-11T01:58:17.763Z,9.79
2023-01-11T02:00:47.520Z,9.79
2023-01-11T02:03:24.638Z,9.82
2023-01-11T02:05:54.631Z,9.84
2023-01-11T02:08:35.884Z,9.88
2023-01-11T02:11:08.611Z,9.86
2023-01-11T02:13:39.739Z,9.85
2023-01-11T02:16:09.351Z,9.90
2023-01-11T02:18:39.577Z,9.83
2023-01-11T02:21:17.863Z,9.86
2023-01-11T02:24:12.540Z,9.90
2023-01-11T02:27:01.881Z,9.95
2023-01-11T02:29:40.155Z,10.00
2023-01-11T02:32:18.628Z,10.05
2023-01-11T02:35:03.088Z,10.08
2023-01-11T02:37:41.129Z,10.02
2023-01-11T02:40:13.629Z,10.02
2023-01-11T02:43:06.733Z,10.05
2023-01-11T02:45:45.076Z,10.02
2023-01-11T02:48:26.389Z,10.03
2023-01-11T02:50:59.177Z,10.05
2023-01-11T02:53:37.590Z,10.02
2023-01-11T02:56:12.754Z,10.03
2023-01-11T02:58:44.246Z,10.10
2023-01-11T03:01:14.260Z,10.11
2023-01-11T03:03:43.549Z,10.09
2023-01-11T03:06:22.587Z,10.19
2023-01-11T03:09:17.496Z,10.15
2023-01-11T03:12:11.103Z,10.11
2023-01-11T03:14:46.099Z,10.18
2023-01-11T03:17:36.276Z,10.13
2023-01-11T03:20:17.616Z,10.19
2023-01-11T03:23:10.900Z,10.16
2023-01-11T03:25:58.362Z,10.21
2023-01-11T03:28:39.614Z,10.23
2023-01-11T03:31:20.741Z,10.16
2023-01-11T03:34:11.506Z,10.13
2023-01-11T03:36:55.701Z,10.24
2023-01-11T03:39:28.394Z,10.25
2023-01-11T03:41:59.711Z,10.24
2023-01-11T03:44:33.797Z,10.29
2023-01-11T03:47:08.180Z,10.26
2023-01-11T03:49:43.300Z,10.25
2023-01-11T03:52:16.229Z,10.25
2023-01-11T03:54:45.984Z,10.31
2023-01-11T03:57:18.393Z,10.28
2023-01-11T03:59:47.858Z,10.26
2023-01-11T04:02:22.270Z,10.32
2023-01-11T04:04:52.420Z,10.37
2023-01-11T04:07:22.036Z,10.39
2023-01-11T04:09:51.766Z,10.33
2023-01-11T04:12:20.989Z,10.33
2023-01-11T04:14:50.560Z,10.33
2023-01-11T04:17:19.920Z,10.35
2023-01-11T04:19:49.427Z,10.41
2023-01-11T04:22:18.645Z,10.35
2023-01-11T04:24:47.863Z,10.36
2023-01-11T04:27:17.090Z,10.39
2023-01-11T04:29:46.454Z,10.36
2023-01-11T04:32:15.818Z,10.43
2023-01-11T04:34:45.199Z,10.35
2023-01-11T04:37:14.730Z,10.32
2023-01-11T04:39:43.941Z,10.33
2023-01-11T04:42:20.089Z,10.31
2023-01-11T04:44:51.198Z,10.27
2023-01-11T04:47:23.275Z,10.26
2023-01-11T04:49:53.012Z,10.28
2023-01-11T04:52:22.500Z,10.27
2023-01-11T04:54:52.605Z,10.19
2023-01-11T04:57:22.223Z,10.18
2023-01-11T04:59:51.730Z,10.18
2023-01-11T05:02:20.960Z,10.12
2023-01-11T05:04:50.173Z,10.10
2023-01-11T05:07:19.354Z,10.08
2023-01-11T05:09:48.781Z,10.06
2023-01-11T05:12:18.334Z,9.99
2023-01-11T05:14:47.585Z,10.03
2023-01-11T05:17:17.979Z,9.94
2023-01-11T05:19:47.221Z,9.87
2023-01-11T05:22:16.442Z,9.88
2023-01-11T05:24:45.739Z,9.78
2023-01-11T05:27:14.985Z,9.71
2023-01-11T05:29:44.792Z,9.65
2023-01-11T05:32:14.516Z,9.71
2023-01-11T05:34:43.932Z,9.67
2023-01-11T05:37:13.164Z,9.59
2023-01-11T05:39:42.613Z,9.53
2023-01-11T05:42:11.907Z,9.48
2023-01-11T05:44:58.903Z,9.45
2023-01-11T05:47:28.128Z,9.45
2023-01-11T05:49:57.371Z,9.26
2023-01-11T05:52:26.708Z,9.33
2023-01-11T05:54:56.062Z,9.24
2023-01-11T05:57:25.250Z,9.24
2023-01-11T05:59:54.509Z,9.20
2023-01-11T06:02:23.791Z,9.19
2023-01-11T06:04:55.418Z,9.28
2023-01-11T06:07:25.775Z,9.20
2023-01-11T06:09:55.281Z,9.16
2023-01-11T06:12:24.574Z,9.16
2023-01-11T06:14:54.039Z,9.20
2023-01-11T06:17:23.252Z,9.11
2023-01-11T06:19:52.467Z,9.06
2023-01-11T06:22:22.160Z,9.05
2023-01-11T06:24:51.396Z,9.02
2023-01-11T06:27:20.571Z,8.96
2023-01-11T06:29:50.079Z,8.99
2023-01-11T06:32:19.498Z,8.87
2023-01-11T06:34:49.705Z,8.91
2023-01-11T06:37:19.221Z,9.02
2023-01-11T06:39:48.408Z,9.09
2023-01-11T06:42:17.648Z,9.01
2023-01-11T06:44:46.832Z,8.93
2023-01-11T06:47:16.097Z,9.02
2023-01-11T06:49:45.297Z,8.98
2023-01-11T06:52:14.613Z,8.90
2023-01-11T06:54:43.799Z,8.90
2023-01-11T06:57:13.642Z,8.85
2023-01-11T06:59:43.302Z,8.80
2023-01-11T07:02:13.147Z,8.70
2023-01-11T07:04:42.336Z,8.70
2023-01-11T07:07:12.263Z,8.67
2023-01-11T07:09:41.463Z,8.53
2023-01-11T07:12:11.301Z,8.51
2023-01-11T07:14:40.761Z,8.49
2023-01-11T07:17:10.176Z,8.52
2023-01-11T07:19:39.386Z,8.42
2023-01-11T07:22:09.303Z,8.43
2023-01-11T07:24:38.511Z,8.38
2023-01-11T07:27:08.099Z,8.28
2023-01-11T07:29:37.287Z,8.36
2023-01-11T07:32:08.228Z,8.41
2023-01-11T07:34:37.965Z,8.22
2023-01-11T07:37:09.250Z,8.12
2023-01-11T07:39:43.864Z,8.21
2023-01-11T07:42:30.531Z,8.10
2023-01-11T07:44:59.749Z,8.05
2023-01-11T07:47:29.446Z,8.08
2023-01-11T07:49:58.636Z,7.98
2023-01-11T07:52:28.117Z,7.95
2023-01-11T07:54:58.970Z,7.89
2023-01-11T07:57:28.722Z,7.82
2023-01-11T07:59:57.906Z,7.73
2023-01-11T08:02:27.450Z,7.70
2023-01-11T08:04:58.157Z,7.57
2023-01-11T08:07:27.721Z,7.51
2023-01-11T08:09:57.006Z,7.46
2023-01-11T08:12:44.338Z,7.49
2023-01-11T08:15:14.230Z,7.44
2023-01-11T08:17:43.749Z,7.47
2023-01-11T08:20:12.991Z,7.45
2023-01-11T08:22:42.247Z,7.40
2023-01-11T08:25:11.930Z,7.40
2023-01-11T08:27:41.713Z,7.52
2023-01-11T08:30:11.933Z,7.51
2023-01-11T08:32:41.178Z,7.49
2023-01-11T08:35:10.508Z,7.49
2023-01-11T08:37:39.999Z,7.54
2023-01-11T08:40:10.280Z,7.52
2023-01-11T08:42:39.478Z,7.52
2023-01-11T08:45:09.423Z,7.55
2023-01-11T08:47:38.952Z,7.52
2023-01-11T08:50:10.700Z,7.46
2023-01-11T08:52:40.753Z,7.51
2023-01-11T08:55:11.206Z,7.55
2023-01-11T08:57:40.481Z,7.56
2023-01-11T09:00:10.744Z,7.53
2023-01-11T09:02:40.084Z,7.59
2023-01-11T09:05:10.404Z,7.63
2023-01-11T09:07:39.624Z,7.65
2023-01-11T09:10:09.693Z,7.66
2023-01-11T09:12:38.954Z,7.64
2023-01-11T09:15:09.702Z,7.68
2023-01-11T09:17:38.940Z,7.71
2023-01-11T09:20:09.468Z,7.87
2023-01-11T09:22:38.744Z,8.00
2023-01-11T09:25:09.905Z,8.06
2023-01-11T09:27:39.259Z,8.16
2023-01-11T09:30:11.579Z,8.16
2023-01-11T09:32:41.257Z,8.23
2023-01-11T09:35:11.397Z,8.39
2023-01-11T09:37:42.266Z,8.61
2023-01-11T09:40:22.851Z,8.46
2023-01-11T09:42:57.347Z,8.55
2023-01-11T09:45:29.864Z,8.78
2023-01-11T09:48:15.229Z,8.95
2023-01-11T09:50:47.773Z,9.24
2023-01-11T09:53:18.004Z,9.25
2023-01-11T09:55:49.032Z,9.35
2023-01-11T09:58:36.504Z,9.33
2023-01-11T10:01:31.707Z,9.36
2023-01-11T10:04:23.673Z,9.40
2023-01-11T10:07:23.103Z,9.84
2023-01-11T10:18:25.684Z,10.62
2023-01-11T10:18:44.401Z,10.85
2023-01-11T10:20:49.741Z,11.46
2023-01-11T10:23:29.034Z,11.37
2023-01-11T10:26:00.367Z,11.28
2023-01-11T10:28:43.233Z,11.35
2023-01-11T10:31:22.754Z,10.88
2023-01-11T10:34:03.560Z,11.21
2023-01-11T10:36:52.781Z,11.09
2023-01-11T10:39:26.803Z,10.96
2023-01-11T10:42:00.866Z,11.27
2023-01-11T10:44:56.040Z,11.35
2023-01-11T10:47:29.337Z,10.77
2023-01-11T10:50:06.224Z,10.99
2023-01-11T10:52:46.340Z,10.91
2023-01-11T10:55:27.367Z,11.17
2023-01-11T10:58:29.771Z,11.42
2023-01-11T11:01:16.062Z,10.57
2023-01-11T11:04:04.200Z,11.38
2023-01-11T11:07:02.138Z,11.41
2023-01-11T11:09:44.105Z,10.75
2023-01-11T11:12:34.055Z,11.12
2023-01-11T11:15:06.725Z,10.64
2023-01-11T11:17:38.147Z,10.91
2023-01-11T11:20:16.372Z,10.81
2023-01-11T11:22:45.608Z,10.49
2023-01-11T11:25:20.965Z,10.26
2023-01-11T11:27:55.673Z,10.00
2023-01-11T11:30:30.867Z,10.02
2023-01-11T11:33:02.544Z,9.66
2023-01-11T11:35:34.544Z,9.43
2023-01-11T11:38:03.996Z,9.56
2023-01-11T11:40:38.691Z,9.34
2023-01-11T11:43:19.209Z,9.14
2023-01-11T11:45:52.966Z,9.12
2023-01-11T11:48:22.981Z,9.11
2023-01-11T11:50:53.952Z,8.99
2023-01-11T11:53:34.733Z,9.00
2023-01-11T11:56:15.828Z,9.10
2023-01-11T11:58:45.631Z,9.04
2023-01-11T12:01:32.752Z,9.19
2023-01-11T12:04:04.634Z,9.21
2023-01-11T12:06:34.240Z,9.29
2023-01-11T12:09:04.152Z,9.45
2023-01-11T12:11:35.772Z,9.49
2023-01-11T12:14:25.970Z,9.42
2023-01-11T12:16:55.527Z,9.44
2023-01-11T12:19:39.926Z,9.43
2023-01-11T12:22:20.137Z,9.47
2023-01-11T12:25:08.330Z,9.37
2023-01-11T12:27:44.403Z,9.41
2023-01-11T12:30:25.662Z,9.41
2023-01-11T12:33:10.398Z,9.36
2023-01-11T12:36:12.634Z,9.37
2023-01-11T12:39:02.946Z,9.44
2023-01-11T12:42:01.390Z,9.68
2023-01-11T12:44:50.938Z,9.63
2023-01-11T12:47:23.664Z,9.59
2023-01-11T12:49:56.215Z,9.58
2023-01-11T12:52:35.975Z,9.51
2023-01-11T12:55:23.696Z,9.58
2023-01-11T12:58:01.813Z,9.62
2023-01-11T13:00:52.743Z,9.54
2023-01-11T13:03:45.893Z,9.55
2023-01-11T13:06:21.562Z,9.52
2023-01-11T13:09:19.923Z,9.57
2023-01-11T13:11:55.449Z,9.74
2023-01-11T13:14:34.230Z,9.70
2023-01-11T13:17:29.450Z,9.74
2023-01-11T13:20:23.038Z,9.64
2023-01-11T13:22:55.392Z,9.65
2023-01-11T13:25:29.698Z,9.66
2023-01-11T13:28:01.524Z,9.60
2023-01-11T13:30:31.762Z,9.47
2023-01-11T13:33:04.216Z,9.56
2023-01-11T13:35:38.548Z,9.54
2023-01-11T13:38:19.822Z,9.54
2023-01-11T13:40:52.459Z,9.44
2023-01-11T13:43:41.046Z,9.37
2023-01-11T13:46:19.782Z,9.38
2023-01-11T13:48:55.252Z,9.46
2023-01-11T13:51:36.364Z,9.56
2023-01-11T13:54:11.298Z,9.77
2023-01-11T13:56:46.506Z,9.93
2023-01-11T13:59:33.291Z,9.89
2023-01-11T14:02:05.804Z,9.82
2023-01-11T14:04:50.378Z,9.61
2023-01-11T14:07:28.690Z,9.48
2023-01-11T14:10:19.600Z,9.43
2023-01-11T14:13:01.328Z,9.37
2023-01-11T14:15:33.823Z,9.27
2023-01-11T14:18:05.799Z,9.22
2023-01-11T14:20:49.943Z,9.20
2023-01-11T14:23:21.361Z,9.23
2023-01-11T14:26:08.942Z,9.21
2023-01-11T14:32:06.853Z,9.15
2023-01-11T14:35:12.599Z,9.07
2023-01-11T14:38:14.135Z,9.07
2023-01-11T14:40:59.911Z,9.01
2023-01-11T14:43:52.044Z,9.00
2023-01-11T14:46:33.550Z,8.96
2023-01-11T14:49:39.589Z,9.00
2023-01-11T14:52:14.829Z,8.89
2023-01-11T14:54:46.273Z,8.83
2023-01-11T14:57:40.819Z,8.84
2023-01-11T15:00:22.045Z,8.84
2023-01-11T15:03:03.727Z,8.77
2023-01-11T15:05:48.220Z,8.86
2023-01-11T15:08:23.679Z,8.82
2023-01-11T15:10:58.048Z,8.66
2023-01-11T15:13:39.777Z,8.61
2023-01-11T15:16:41.564Z,8.58
2023-01-11T15:19:14.041Z,8.66
2023-01-11T15:21:48.337Z,8.62
2023-01-11T15:24:32.282Z,8.57
2023-01-11T15:27:02.730Z,8.56
2023-01-11T15:29:34.992Z,8.50
2023-01-11T15:32:07.100Z,8.49
2023-01-11T15:34:42.327Z,8.65
2023-01-11T15:37:42.043Z,8.74
2023-01-11T15:40:14.587Z,8.72
2023-01-11T15:43:09.655Z,8.65
2023-01-11T15:46:19.677Z,8.65
2023-01-11T15:48:58.639Z,8.56
2023-01-11T15:51:47.318Z,8.50
2023-01-11T15:54:46.998Z,8.40
2023-01-11T15:57:47.072Z,8.42
2023-01-11T16:00:22.880Z,8.26
2023-01-11T16:02:55.598Z,8.10
2023-01-11T16:05:30.444Z,8.17
2023-01-11T16:08:17.834Z,8.11
2023-01-11T16:10:53.064Z,8.05
2023-01-11T16:13:44.848Z,7.96
2023-01-11T16:16:29.523Z,8.00
2023-01-11T16:19:11.241Z,8.01
2023-01-11T16:21:42.318Z,7.90
2023-01-11T16:24:20.442Z,7.93
2023-01-11T16:26:58.648Z,7.90
2023-01-11T16:29:36.276Z,7.81
2023-01-11T16:32:07.929Z,7.86
2023-01-11T16:34:42.628Z,7.99
2023-01-11T16:37:23.731Z,7.98
2023-01-11T16:39:56.423Z,7.97
2023-01-11T16:42:27.477Z,8.07
2023-01-11T16:44:59.712Z,8.26
2023-01-11T16:47:29.259Z,8.34
2023-01-11T16:50:16.881Z,8.35
2023-01-11T16:52:53.690Z,8.37
2023-01-11T16:55:29.910Z,8.40
2023-01-11T16:58:01.967Z,8.35
2023-01-11T17:00:36.548Z,8.36
2023-01-11T17:03:24.546Z,8.39
2023-01-11T17:05:55.620Z,8.30
2023-01-11T17:08:31.041Z,8.29
2023-01-11T17:11:03.670Z,8.26
2023-01-11T17:13:55.225Z,8.20
2023-01-11T17:16:36.968Z,8.17
2023-01-11T17:19:18.225Z,8.03
2023-01-11T17:21:53.034Z,8.00
2023-01-11T17:24:25.748Z,7.95
2023-01-11T17:27:00.445Z,8.02
2023-01-11T17:29:38.653Z,7.95
2023-01-11T17:32:11.012Z,7.95
2023-01-11T17:34:40.638Z,8.05
2023-01-11T17:37:13.277Z,8.04
2023-01-11T17:39:47.081Z,8.03
2023-01-11T17:42:35.084Z,8.09
2023-01-11T17:45:20.787Z,8.11
2023-01-11T17:47:52.902Z,8.07
2023-01-11T17:50:34.401Z,8.04
2023-01-11T17:53:09.745Z,8.00
2023-01-11T17:55:56.429Z,7.96
2023-01-11T17:58:36.383Z,8.06
2023-01-11T18:01:19.903Z,7.99
2023-01-11T18:03:51.599Z,8.08
2023-01-11T18:06:29.426Z,8.07
2023-01-11T18:08:59.764Z,8.01
2023-01-11T18:11:36.963Z,8.14
2023-01-11T18:14:08.744Z,8.15
2023-01-11T18:16:38.258Z,8.20
2023-01-11T18:19:19.860Z,8.19
2023-01-11T18:21:54.461Z,8.15
2023-01-11T18:24:33.287Z,8.22
2023-01-11T18:27:17.443Z,8.17
2023-01-11T18:29:49.156Z,8.29
2023-01-11T18:32:18.934Z,8.26
2023-01-11T18:34:51.046Z,8.11
2023-01-11T18:37:20.934Z,7.92
2023-01-11T18:39:51.881Z,7.82
2023-01-11T18:42:23.993Z,7.77
2023-01-11T18:44:53.238Z,7.82
2023-01-11T18:47:25.381Z,7.87
2023-01-11T18:49:55.416Z,7.93
2023-01-11T18:52:27.512Z,7.96
2023-01-11T18:54:57.522Z,7.99
2023-01-11T18:57:26.942Z,8.01
2023-01-11T18:59:56.885Z,7.96
2023-01-11T19:02:32.224Z,7.89
2023-01-11T19:05:01.734Z,7.87
2023-01-11T19:07:30.947Z,7.75
2023-01-11T19:10:00.326Z,7.63
2023-01-11T19:12:29.606Z,7.59
2023-01-11T19:14:59.677Z,7.68
2023-01-11T19:17:28.874Z,7.70
2023-01-11T19:19:58.391Z,7.81
2023-01-11T19:22:27.700Z,7.86
2023-01-11T19:24:57.310Z,7.83
2023-01-11T19:27:26.648Z,7.96
2023-01-11T19:29:57.948Z,7.74
2023-01-11T19:32:27.333Z,7.67
2023-01-11T19:34:58.645Z,7.54
2023-01-11T19:37:29.975Z,7.46
2023-01-11T19:39:59.678Z,7.34
2023-01-11T19:42:28.941Z,7.26
2023-01-11T19:44:58.441Z,7.28
2023-01-11T19:47:27.743Z,7.14
2023-01-11T19:49:59.149Z,7.05
2023-01-11T19:52:29.043Z,6.99
2023-01-11T19:54:58.569Z,6.96
2023-01-11T19:57:29.092Z,6.99
2023-01-11T19:59:58.632Z,6.89
2023-01-11T20:02:28.160Z,6.96
2023-01-11T20:04:57.738Z,6.91
2023-01-11T20:07:26.982Z,6.91
2023-01-11T20:09:56.256Z,6.87
2023-01-11T20:12:25.904Z,6.86
2023-01-11T20:14:57.764Z,6.78
2023-01-11T20:17:27.530Z,6.79
2023-01-11T20:19:56.871Z,6.77
2023-01-11T20:22:26.668Z,6.77
2023-01-11T20:24:56.166Z,6.80
2023-01-11T20:27:25.756Z,6.88
2023-01-11T20:29:54.962Z,6.92
2023-01-11T20:32:40.309Z,6.97
2023-01-11T20:34:55.535Z,7.00
2023-01-11T20:37:24.805Z,7.05
2023-01-11T20:39:53.977Z,7.08
2023-01-11T20:42:23.245Z,7.15
2023-01-11T20:44:52.537Z,7.17
2023-01-11T20:47:22.068Z,7.22
2023-01-11T20:49:51.281Z,7.31
2023-01-11T20:52:20.638Z,7.37
2023-01-11T20:54:49.856Z,7.42
2023-01-11T20:57:19.421Z,7.48
2023-01-11T20:59:48.680Z,7.42
2023-01-11T21:02:18.089Z,7.32
2023-01-11T21:04:47.499Z,7.46
2023-01-11T21:07:16.864Z,7.45
2023-01-11T21:09:46.101Z,7.33
2023-01-11T21:12:17.075Z,7.26
2023-01-11T21:14:46.355Z,7.21
2023-01-11T21:17:16.087Z,7.16
2023-01-11T21:19:45.584Z,7.09
2023-01-11T21:22:15.342Z,7.13
2023-01-11T21:24:44.772Z,7.18
2023-01-11T21:27:14.479Z,7.18
2023-01-11T21:29:43.808Z,7.30
2023-01-11T21:32:13.222Z,7.34
2023-01-11T21:34:42.889Z,7.37
2023-01-11T21:37:12.339Z,7.37
2023-01-11T21:39:42.206Z,7.39
2023-01-11T21:42:11.572Z,7.33
2023-01-11T21:44:41.036Z,7.31
2023-01-11T21:47:11.415Z,7.26
2023-01-11T21:49:41.469Z,7.24
2023-01-11T21:52:11.757Z,7.26
2023-01-11T21:54:41.178Z,7.27
2023-01-11T21:57:10.700Z,7.32
2023-01-11T21:59:40.232Z,7.34
2023-01-11T22:02:11.356Z,7.31
2023-01-11T22:04:40.591Z,7.30
2023-01-11T22:07:12.002Z,7.37
2023-01-11T22:09:59.858Z,7.37
2023-01-11T22:12:14.902Z,7.38
2023-01-11T22:14:45.943Z,7.54
2023-01-11T22:17:15.507Z,7.61
2023-01-11T22:19:45.453Z,7.70
2023-01-11T22:22:16.957Z,7.60
2023-01-11T22:24:46.368Z,7.59
2023-01-11T22:27:17.599Z,7.57
2023-01-11T22:29:48.365Z,7.75
2023-01-11T22:32:17.927Z,7.70
2023-01-11T22:34:47.470Z,7.66
2023-01-11T22:37:17.089Z,7.58
2023-01-11T22:39:46.844Z,7.73
2023-01-11T22:42:16.134Z,7.74
2023-01-11T22:44:45.912Z,7.71
2023-01-11T22:47:15.147Z,7.65
2023-01-11T22:49:44.387Z,7.63
2023-01-11T22:52:13.568Z,7.61
2023-01-11T22:54:42.996Z,7.59
2023-01-11T22:57:12.211Z,7.62
2023-01-11T22:59:41.420Z,7.61
2023-01-11T23:02:10.633Z,7.57
2023-01-11T23:04:39.922Z,7.51
2023-01-11T23:07:09.138Z,7.45
2023-01-11T23:09:38.693Z,7.60
2023-01-11T23:12:27.088Z,7.60
2023-01-11T23:14:56.296Z,7.59
2023-01-11T23:17:25.922Z,7.56
2023-01-11T23:19:55.139Z,7.64
2023-01-11T23:22:24.467Z,7.63
2023-01-11T23:24:53.929Z,7.62
2023-01-11T23:27:23.359Z,7.66
2023-01-11T23:29:52.828Z,7.70
2023-01-11T23:32:22.143Z,7.71
2023-01-11T23:34:51.534Z,7.81
2023-01-11T23:37:20.746Z,7.83
2023-01-11T23:39:50.285Z,7.83
2023-01-11T23:42:28.491Z,7.77
2023-01-11T23:44:58.612Z,7.76
2023-01-11T23:47:29.524Z,7.70
2023-01-11T23:50:01.938Z,7.71
2023-01-11T23:52:32.487Z,7.64
2023-01-11T23:55:01.667Z,7.59
2023-01-11T23:57:31.308Z,7.54
